sensor_id;sensor_type;location;lat;lon;timestamp;P1;durP1;ratioP1;P2;durP2;ratioP2
8610;SDS011;4343;53.648;10.098;2023-06-10T00:01:45;3.53;;;3.20;;
8610;SDS011;4343;53.648;10.098;2023-06-10T00:04:14;4.15;;;3.58;;
8610;SDS011;4343;53.648;10.098;2023-06-10T00:06:41;4.85;;;3.45;;
8610;SDS011;4343;53.648;10.098;2023-06-10T00:09:08;5.15;;;3.22;;
8610;SDS011;4343;53.648;10.098;2023-06-10T00:11:35;6.88;;;3.42;;
8610;SDS011;4343;53.648;10.098;2023-06-10T00:14:04;6.57;;;3.33;;
8610;SDS011;4343;53.648;10.098;2023-06-10T00:16:29;4.45;;;2.97;;
8610;SDS011;4343;53.648;10.098;2023-06-10T00:18:55;4.20;;;3.45;;
8610;SDS011;4343;53.648;10.098;2023-06-10T00:21:25;2.97;;;2.72;;
8610;SDS011;4343;53.648;10.098;2023-06-10T00:23:51;5.68;;;3.88;;
8610;SDS011;4343;53.648;10.098;2023-06-10T00:26:16;3.88;;;3.03;;
8610;SDS011;4343;53.648;10.098;2023-06-10T00:28:42;5.15;;;3.17;;
8610;SDS011;4343;53.648;10.098;2023-06-10T00:31:09;5.13;;;3.35;;
8610;SDS011;4343;53.648;10.098;2023-06-10T00:33:35;3.25;;;3.00;;
8610;SDS011;4343;53.648;10.098;2023-06-10T00:36:01;3.53;;;3.28;;
8610;SDS011;4343;53.648;10.098;2023-06-10T00:38:26;4.35;;;3.15;;
8610;SDS011;4343;53.648;10.098;2023-06-10T00:40:52;3.35;;;3.05;;
8610;SDS011;4343;53.648;10.098;2023-06-10T00:43:17;3.13;;;2.92;;
8610;SDS011;4343;53.648;10.098;2023-06-10T00:45:43;3.75;;;2.83;;
8610;SDS011;4343;53.648;10.098;2023-06-10T00:48:08;3.20;;;2.90;;
8610;SDS011;4343;53.648;10.098;2023-06-10T00:50:35;3.65;;;3.03;;
8610;SDS011;4343;53.648;10.098;2023-06-10T00:53:04;3.40;;;3.05;;
8610;SDS011;4343;53.648;10.098;2023-06-10T00:55:30;3.60;;;2.95;;
8610;SDS011;4343;53.648;10.098;2023-06-10T00:57:57;2.80;;;2.60;;
8610;SDS011;4343;53.648;10.098;2023-06-10T01:00:24;3.70;;;3.08;;
8610;SDS011;4343;53.648;10.098;2023-06-10T01:02:50;4.03;;;2.65;;
8610;SDS011;4343;53.648;10.098;2023-06-10T01:05:17;3.80;;;3.00;;
8610;SDS011;4343;53.648;10.098;2023-06-10T01:07:47;2.70;;;2.53;;
8610;SDS011;4343;53.648;10.098;2023-06-10T01:10:38;2.88;;;2.67;;
8610;SDS011;4343;53.648;10.098;2023-06-10T01:13:09;3.30;;;2.88;;
8610;SDS011;4343;53.648;10.098;2023-06-10T01:15:39;5.93;;;3.85;;
8610;SDS011;4343;53.648;10.098;2023-06-10T01:18:08;3.53;;;3.08;;
8610;SDS011;4343;53.648;10.098;2023-06-10T01:20:36;2.80;;;2.60;;
8610;SDS011;4343;53.648;10.098;2023-06-10T01:23:05;3.20;;;2.90;;
8610;SDS011;4343;53.648;10.098;2023-06-10T01:25:31;2.90;;;2.70;;
8610;SDS011;4343;53.648;10.098;2023-06-10T01:28:02;4.85;;;2.90;;
8610;SDS011;4343;53.648;10.098;2023-06-10T01:30:44;4.22;;;3.20;;
8610;SDS011;4343;53.648;10.098;2023-06-10T01:33:16;3.00;;;2.80;;
8610;SDS011;4343;53.648;10.098;2023-06-10T01:35:47;3.08;;;2.75;;
8610;SDS011;4343;53.648;10.098;2023-06-10T01:38:13;5.65;;;2.50;;
8610;SDS011;4343;53.648;10.098;2023-06-10T01:40:41;3.97;;;2.80;;
8610;SDS011;4343;53.648;10.098;2023-06-10T01:43:07;3.28;;;2.63;;
8610;SDS011;4343;53.648;10.098;2023-06-10T01:45:32;3.17;;;2.67;;
8610;SDS011;4343;53.648;10.098;2023-06-10T01:47:58;2.80;;;2.60;;
8610;SDS011;4343;53.648;10.098;2023-06-10T01:50:23;4.53;;;2.90;;
8610;SDS011;4343;53.648;10.098;2023-06-10T01:52:49;2.45;;;2.28;;
8610;SDS011;4343;53.648;10.098;2023-06-10T01:55:14;3.65;;;2.35;;
8610;SDS011;4343;53.648;10.098;2023-06-10T01:57:40;3.25;;;2.63;;
8610;SDS011;4343;53.648;10.098;2023-06-10T02:00:06;4.03;;;2.80;;
8610;SDS011;4343;53.648;10.098;2023-06-10T02:02:32;2.90;;;2.33;;
8610;SDS011;4343;53.648;10.098;2023-06-10T02:04:58;3.55;;;2.35;;
8610;SDS011;4343;53.648;10.098;2023-06-10T02:07:23;4.78;;;2.65;;
8610;SDS011;4343;53.648;10.098;2023-06-10T02:09:49;5.22;;;2.83;;
8610;SDS011;4343;53.648;10.098;2023-06-10T02:12:14;4.07;;;2.63;;
8610;SDS011;4343;53.648;10.098;2023-06-10T02:14:40;5.38;;;2.58;;
8610;SDS011;4343;53.648;10.098;2023-06-10T02:17:06;3.00;;;2.63;;
8610;SDS011;4343;53.648;10.098;2023-06-10T02:19:31;3.55;;;2.22;;
8610;SDS011;4343;53.648;10.098;2023-06-10T02:21:57;4.22;;;2.40;;
8610;SDS011;4343;53.648;10.098;2023-06-10T02:24:23;6.10;;;2.33;;
8610;SDS011;4343;53.648;10.098;2023-06-10T02:26:48;5.75;;;2.83;;
8610;SDS011;4343;53.648;10.098;2023-06-10T02:29:14;7.03;;;2.80;;
8610;SDS011;4343;53.648;10.098;2023-06-10T02:31:39;4.20;;;2.45;;
8610;SDS011;4343;53.648;10.098;2023-06-10T02:34:06;3.53;;;2.50;;
8610;SDS011;4343;53.648;10.098;2023-06-10T02:36:31;3.15;;;2.22;;
8610;SDS011;4343;53.648;10.098;2023-06-10T02:38:57;3.42;;;2.40;;
8610;SDS011;4343;53.648;10.098;2023-06-10T02:41:22;2.78;;;2.47;;
8610;SDS011;4343;53.648;10.098;2023-06-10T02:43:49;3.50;;;2.30;;
8610;SDS011;4343;53.648;10.098;2023-06-10T02:46:15;3.13;;;2.55;;
8610;SDS011;4343;53.648;10.098;2023-06-10T02:48:41;2.92;;;2.65;;
8610;SDS011;4343;53.648;10.098;2023-06-10T02:51:08;4.38;;;2.15;;
8610;SDS011;4343;53.648;10.098;2023-06-10T02:53:33;5.03;;;2.80;;
8610;SDS011;4343;53.648;10.098;2023-06-10T02:55:59;3.67;;;2.33;;
8610;SDS011;4343;53.648;10.098;2023-06-10T02:58:24;3.75;;;2.50;;
8610;SDS011;4343;53.648;10.098;2023-06-10T03:00:51;2.75;;;2.28;;
8610;SDS011;4343;53.648;10.098;2023-06-10T03:03:16;2.25;;;2.15;;
8610;SDS011;4343;53.648;10.098;2023-06-10T03:05:42;5.45;;;2.50;;
8610;SDS011;4343;53.648;10.098;2023-06-10T03:08:07;2.63;;;2.42;;
8610;SDS011;4343;53.648;10.098;2023-06-10T03:10:33;4.25;;;2.42;;
8610;SDS011;4343;53.648;10.098;2023-06-10T03:12:58;2.08;;;1.90;;
8610;SDS011;4343;53.648;10.098;2023-06-10T03:15:24;2.38;;;2.17;;
8610;SDS011;4343;53.648;10.098;2023-06-10T03:17:50;7.20;;;2.95;;
8610;SDS011;4343;53.648;10.098;2023-06-10T03:20:15;2.72;;;2.08;;
8610;SDS011;4343;53.648;10.098;2023-06-10T03:22:41;2.10;;;2.00;;
8610;SDS011;4343;53.648;10.098;2023-06-10T03:25:07;3.35;;;2.17;;
8610;SDS011;4343;53.648;10.098;2023-06-10T03:27:38;3.40;;;2.05;;
8610;SDS011;4343;53.648;10.098;2023-06-10T03:30:05;2.30;;;2.10;;
8610;SDS011;4343;53.648;10.098;2023-06-10T03:32:31;2.63;;;2.00;;
8610;SDS011;4343;53.648;10.098;2023-06-10T03:34:56;2.33;;;2.13;;
8610;SDS011;4343;53.648;10.098;2023-06-10T03:37:23;3.08;;;2.42;;
8610;SDS011;4343;53.648;10.098;2023-06-10T03:39:49;2.35;;;2.15;;
8610;SDS011;4343;53.648;10.098;2023-06-10T03:42:15;2.55;;;2.08;;
8610;SDS011;4343;53.648;10.098;2023-06-10T03:44:40;2.30;;;2.15;;
8610;SDS011;4343;53.648;10.098;2023-06-10T03:47:06;3.63;;;2.10;;
8610;SDS011;4343;53.648;10.098;2023-06-10T03:49:32;3.65;;;2.40;;
8610;SDS011;4343;53.648;10.098;2023-06-10T03:51:57;2.25;;;1.92;;
8610;SDS011;4343;53.648;10.098;2023-06-10T03:54:23;2.45;;;2.05;;
8610;SDS011;4343;53.648;10.098;2023-06-10T03:56:49;1.80;;;1.70;;
8610;SDS011;4343;53.648;10.098;2023-06-10T03:59:15;4.35;;;2.35;;
8610;SDS011;4343;53.648;10.098;2023-06-10T04:01:41;3.67;;;2.20;;
8610;SDS011;4343;53.648;10.098;2023-06-10T04:04:06;2.65;;;2.00;;
8610;SDS011;4343;53.648;10.098;2023-06-10T04:06:32;3.60;;;2.17;;
8610;SDS011;4343;53.648;10.098;2023-06-10T04:08:58;2.28;;;2.13;;
8610;SDS011;4343;53.648;10.098;2023-06-10T04:11:24;4.43;;;2.30;;
8610;SDS011;4343;53.648;10.098;2023-06-10T04:13:49;3.08;;;2.22;;
8610;SDS011;4343;53.648;10.098;2023-06-10T04:16:15;3.88;;;2.50;;
8610;SDS011;4343;53.648;10.098;2023-06-10T04:18:41;3.60;;;2.40;;
8610;SDS011;4343;53.648;10.098;2023-06-10T04:21:07;3.58;;;2.50;;
8610;SDS011;4343;53.648;10.098;2023-06-10T04:23:33;3.05;;;2.25;;
8610;SDS011;4343;53.648;10.098;2023-06-10T04:26:00;3.70;;;2.35;;
8610;SDS011;4343;53.648;10.098;2023-06-10T04:28:25;5.47;;;2.50;;
8610;SDS011;4343;53.648;10.098;2023-06-10T04:30:51;3.35;;;2.50;;
8610;SDS011;4343;53.648;10.098;2023-06-10T04:33:17;3.20;;;2.40;;
8610;SDS011;4343;53.648;10.098;2023-06-10T04:35:42;3.75;;;2.13;;
8610;SDS011;4343;53.648;10.098;2023-06-10T04:38:08;2.53;;;2.30;;
8610;SDS011;4343;53.648;10.098;2023-06-10T04:40:33;3.75;;;2.72;;
8610;SDS011;4343;53.648;10.098;2023-06-10T04:42:59;2.58;;;2.40;;
8610;SDS011;4343;53.648;10.098;2023-06-10T04:45:25;4.15;;;2.40;;
8610;SDS011;4343;53.648;10.098;2023-06-10T04:47:50;3.40;;;2.58;;
8610;SDS011;4343;53.648;10.098;2023-06-10T04:50:16;4.78;;;2.80;;
8610;SDS011;4343;53.648;10.098;2023-06-10T04:52:42;4.25;;;2.67;;
8610;SDS011;4343;53.648;10.098;2023-06-10T04:55:07;2.63;;;2.40;;
8610;SDS011;4343;53.648;10.098;2023-06-10T04:57:33;3.40;;;2.35;;
8610;SDS011;4343;53.648;10.098;2023-06-10T04:59:59;2.63;;;2.40;;
8610;SDS011;4343;53.648;10.098;2023-06-10T05:02:24;3.75;;;2.30;;
8610;SDS011;4343;53.648;10.098;2023-06-10T05:04:50;3.00;;;2.40;;
8610;SDS011;4343;53.648;10.098;2023-06-10T05:07:16;4.38;;;2.28;;
8610;SDS011;4343;53.648;10.098;2023-06-10T05:09:41;2.47;;;2.13;;
8610;SDS011;4343;53.648;10.098;2023-06-10T05:12:07;2.20;;;2.00;;
8610;SDS011;4343;53.648;10.098;2023-06-10T05:14:33;2.47;;;2.03;;
8610;SDS011;4343;53.648;10.098;2023-06-10T05:16:59;5.60;;;2.58;;
8610;SDS011;4343;53.648;10.098;2023-06-10T05:19:24;3.45;;;2.40;;
8610;SDS011;4343;53.648;10.098;2023-06-10T05:21:50;2.92;;;2.30;;
8610;SDS011;4343;53.648;10.098;2023-06-10T05:24:15;3.10;;;2.00;;
8610;SDS011;4343;53.648;10.098;2023-06-10T05:26:41;3.92;;;2.58;;
8610;SDS011;4343;53.648;10.098;2023-06-10T05:29:07;4.72;;;2.65;;
8610;SDS011;4343;53.648;10.098;2023-06-10T05:31:36;2.25;;;2.00;;
8610;SDS011;4343;53.648;10.098;2023-06-10T05:34:01;3.15;;;2.70;;
8610;SDS011;4343;53.648;10.098;2023-06-10T05:36:27;3.28;;;2.38;;
8610;SDS011;4343;53.648;10.098;2023-06-10T05:38:52;4.30;;;2.10;;
8610;SDS011;4343;53.648;10.098;2023-06-10T05:41:18;4.22;;;1.85;;
8610;SDS011;4343;53.648;10.098;2023-06-10T05:43:43;1.90;;;1.80;;
8610;SDS011;4343;53.648;10.098;2023-06-10T05:46:09;4.68;;;2.80;;
8610;SDS011;4343;53.648;10.098;2023-06-10T05:48:35;6.88;;;2.35;;
8610;SDS011;4343;53.648;10.098;2023-06-10T05:51:00;4.10;;;2.38;;
8610;SDS011;4343;53.648;10.098;2023-06-10T05:53:26;4.03;;;1.92;;
8610;SDS011;4343;53.648;10.098;2023-06-10T05:55:51;5.45;;;2.55;;
8610;SDS011;4343;53.648;10.098;2023-06-10T05:58:19;3.60;;;2.03;;
8610;SDS011;4343;53.648;10.098;2023-06-10T06:00:45;3.22;;;2.25;;
8610;SDS011;4343;53.648;10.098;2023-06-10T06:03:10;7.30;;;2.10;;
8610;SDS011;4343;53.648;10.098;2023-06-10T06:05:37;4.97;;;1.83;;
8610;SDS011;4343;53.648;10.098;2023-06-10T06:08:04;4.35;;;2.83;;
8610;SDS011;4343;53.648;10.098;2023-06-10T06:10:30;4.13;;;2.53;;
8610;SDS011;4343;53.648;10.098;2023-06-10T06:12:56;5.22;;;2.28;;
8610;SDS011;4343;53.648;10.098;2023-06-10T06:15:21;3.53;;;2.20;;
8610;SDS011;4343;53.648;10.098;2023-06-10T06:17:47;3.40;;;1.88;;
8610;SDS011;4343;53.648;10.098;2023-06-10T06:20:12;2.50;;;2.28;;
8610;SDS011;4343;53.648;10.098;2023-06-10T06:22:38;4.05;;;2.47;;
8610;SDS011;4343;53.648;10.098;2023-06-10T06:25:04;4.10;;;2.10;;
8610;SDS011;4343;53.648;10.098;2023-06-10T06:27:30;5.82;;;2.90;;
8610;SDS011;4343;53.648;10.098;2023-06-10T06:29:56;4.10;;;2.20;;
8610;SDS011;4343;53.648;10.098;2023-06-10T06:32:21;8.07;;;2.75;;
8610;SDS011;4343;53.648;10.098;2023-06-10T06:34:49;4.82;;;2.38;;
8610;SDS011;4343;53.648;10.098;2023-06-10T06:37:19;4.10;;;1.95;;
8610;SDS011;4343;53.648;10.098;2023-06-10T06:39:51;2.30;;;2.10;;
8610;SDS011;4343;53.648;10.098;2023-06-10T06:42:18;2.25;;;2.05;;
8610;SDS011;4343;53.648;10.098;2023-06-10T06:44:44;4.97;;;3.30;;
8610;SDS011;4343;53.648;10.098;2023-06-10T06:47:09;3.40;;;2.50;;
8610;SDS011;4343;53.648;10.098;2023-06-10T06:49:35;5.05;;;2.05;;
8610;SDS011;4343;53.648;10.098;2023-06-10T06:52:01;3.10;;;2.38;;
8610;SDS011;4343;53.648;10.098;2023-06-10T06:54:26;3.05;;;2.35;;
8610;SDS011;4343;53.648;10.098;2023-06-10T06:56:52;6.20;;;2.83;;
8610;SDS011;4343;53.648;10.098;2023-06-10T06:59:18;4.03;;;2.53;;
8610;SDS011;4343;53.648;10.098;2023-06-10T07:01:44;5.47;;;2.10;;
8610;SDS011;4343;53.648;10.098;2023-06-10T07:04:10;3.47;;;2.22;;
8610;SDS011;4343;53.648;10.098;2023-06-10T07:06:36;4.63;;;2.67;;
8610;SDS011;4343;53.648;10.098;2023-06-10T07:09:03;4.32;;;2.33;;
8610;SDS011;4343;53.648;10.098;2023-06-10T07:11:29;5.20;;;2.13;;
8610;SDS011;4343;53.648;10.098;2023-06-10T07:13:55;2.97;;;2.28;;
8610;SDS011;4343;53.648;10.098;2023-06-10T07:16:21;6.25;;;2.85;;
8610;SDS011;4343;53.648;10.098;2023-06-10T07:18:46;5.15;;;1.90;;
8610;SDS011;4343;53.648;10.098;2023-06-10T07:21:12;2.85;;;1.88;;
8610;SDS011;4343;53.648;10.098;2023-06-10T07:23:37;3.38;;;3.05;;
8610;SDS011;4343;53.648;10.098;2023-06-10T07:26:07;2.90;;;2.65;;
8610;SDS011;4343;53.648;10.098;2023-06-10T07:28:35;3.90;;;2.45;;
8610;SDS011;4343;53.648;10.098;2023-06-10T07:31:01;2.53;;;2.33;;
8610;SDS011;4343;53.648;10.098;2023-06-10T07:33:27;4.45;;;2.80;;
8610;SDS011;4343;53.648;10.098;2023-06-10T07:35:53;3.65;;;2.22;;
8610;SDS011;4343;53.648;10.098;2023-06-10T07:38:18;3.20;;;2.40;;
8610;SDS011;4343;53.648;10.098;2023-06-10T07:40:45;4.22;;;2.47;;
8610;SDS011;4343;53.648;10.098;2023-06-10T07:43:10;3.38;;;2.42;;
8610;SDS011;4343;53.648;10.098;2023-06-10T07:45:36;4.85;;;2.65;;
8610;SDS011;4343;53.648;10.098;2023-06-10T07:48:04;4.45;;;2.58;;
8610;SDS011;4343;53.648;10.098;2023-06-10T07:50:29;2.40;;;2.30;;
8610;SDS011;4343;53.648;10.098;2023-06-10T07:52:55;2.85;;;2.42;;
8610;SDS011;4343;53.648;10.098;2023-06-10T07:55:20;3.88;;;2.67;;
8610;SDS011;4343;53.648;10.098;2023-06-10T07:57:46;2.42;;;2.22;;
8610;SDS011;4343;53.648;10.098;2023-06-10T08:00:11;4.32;;;2.47;;
8610;SDS011;4343;53.648;10.098;2023-06-10T08:02:37;4.20;;;2.95;;
8610;SDS011;4343;53.648;10.098;2023-06-10T08:05:03;3.35;;;2.63;;
8610;SDS011;4343;53.648;10.098;2023-06-10T08:07:29;4.68;;;2.75;;
8610;SDS011;4343;53.648;10.098;2023-06-10T08:09:55;3.05;;;2.60;;
8610;SDS011;4343;53.648;10.098;2023-06-10T08:12:21;2.88;;;2.42;;
8610;SDS011;4343;53.648;10.098;2023-06-10T08:14:47;4.30;;;2.38;;
8610;SDS011;4343;53.648;10.098;2023-06-10T08:17:12;3.88;;;2.83;;
8610;SDS011;4343;53.648;10.098;2023-06-10T08:19:38;3.83;;;2.42;;
8610;SDS011;4343;53.648;10.098;2023-06-10T08:22:03;5.07;;;2.63;;
8610;SDS011;4343;53.648;10.098;2023-06-10T08:24:29;2.40;;;2.20;;
8610;SDS011;4343;53.648;10.098;2023-06-10T08:26:54;2.55;;;2.25;;
8610;SDS011;4343;53.648;10.098;2023-06-10T08:29:22;4.57;;;2.75;;
8610;SDS011;4343;53.648;10.098;2023-06-10T08:31:48;2.80;;;2.60;;
8610;SDS011;4343;53.648;10.098;2023-06-10T08:34:13;4.50;;;2.65;;
8610;SDS011;4343;53.648;10.098;2023-06-10T08:36:39;4.97;;;2.92;;
8610;SDS011;4343;53.648;10.098;2023-06-10T08:39:04;2.60;;;2.38;;
8610;SDS011;4343;53.648;10.098;2023-06-10T08:41:30;4.10;;;3.00;;
8610;SDS011;4343;53.648;10.098;2023-06-10T08:44:03;3.47;;;2.60;;
8610;SDS011;4343;53.648;10.098;2023-06-10T08:46:49;5.43;;;3.15;;
8610;SDS011;4343;53.648;10.098;2023-06-10T08:49:19;3.28;;;2.80;;
8610;SDS011;4343;53.648;10.098;2023-06-10T08:51:51;4.18;;;2.70;;
8610;SDS011;4343;53.648;10.098;2023-06-10T08:54:24;3.60;;;2.20;;
8610;SDS011;4343;53.648;10.098;2023-06-10T08:56:55;6.50;;;3.15;;
8610;SDS011;4343;53.648;10.098;2023-06-10T08:59:24;5.57;;;2.60;;
8610;SDS011;4343;53.648;10.098;2023-06-10T09:01:50;3.70;;;2.63;;
8610;SDS011;4343;53.648;10.098;2023-06-10T09:04:18;3.60;;;2.53;;
8610;SDS011;4343;53.648;10.098;2023-06-10T09:06:44;3.53;;;2.60;;
8610;SDS011;4343;53.648;10.098;2023-06-10T09:09:10;5.50;;;3.83;;
8610;SDS011;4343;53.648;10.098;2023-06-10T09:11:40;4.50;;;3.50;;
8610;SDS011;4343;53.648;10.098;2023-06-10T09:14:07;5.97;;;2.70;;
8610;SDS011;4343;53.648;10.098;2023-06-10T09:16:33;5.50;;;2.97;;
8610;SDS011;4343;53.648;10.098;2023-06-10T09:18:59;3.95;;;2.58;;
8610;SDS011;4343;53.648;10.098;2023-06-10T09:21:25;5.25;;;3.17;;
8610;SDS011;4343;53.648;10.098;2023-06-10T09:23:50;3.90;;;2.97;;
8610;SDS011;4343;53.648;10.098;2023-06-10T09:26:16;4.50;;;2.85;;
8610;SDS011;4343;53.648;10.098;2023-06-10T09:28:48;4.38;;;2.83;;
8610;SDS011;4343;53.648;10.098;2023-06-10T09:31:17;3.97;;;2.65;;
8610;SDS011;4343;53.648;10.098;2023-06-10T09:33:46;4.90;;;3.00;;
8610;SDS011;4343;53.648;10.098;2023-06-10T09:36:21;3.53;;;3.13;;
8610;SDS011;4343;53.648;10.098;2023-06-10T09:38:49;4.90;;;3.10;;
8610;SDS011;4343;53.648;10.098;2023-06-10T09:41:15;4.25;;;2.92;;
8610;SDS011;4343;53.648;10.098;2023-06-10T09:43:44;4.82;;;3.40;;
8610;SDS011;4343;53.648;10.098;2023-06-10T09:46:15;7.95;;;3.03;;
8610;SDS011;4343;53.648;10.098;2023-06-10T09:48:44;4.38;;;2.78;;
8610;SDS011;4343;53.648;10.098;2023-06-10T09:51:11;2.95;;;2.60;;
8610;SDS011;4343;53.648;10.098;2023-06-10T09:53:38;3.50;;;2.97;;
8610;SDS011;4343;53.648;10.098;2023-06-10T09:56:04;3.15;;;2.70;;
8610;SDS011;4343;53.648;10.098;2023-06-10T09:58:34;4.13;;;3.17;;
8610;SDS011;4343;53.648;10.098;2023-06-10T10:01:10;4.82;;;3.25;;
8610;SDS011;4343;53.648;10.098;2023-06-10T10:03:47;6.47;;;3.53;;
8610;SDS011;4343;53.648;10.098;2023-06-10T10:06:15;9.50;;;3.83;;
8610;SDS011;4343;53.648;10.098;2023-06-10T10:08:41;4.65;;;2.80;;
8610;SDS011;4343;53.648;10.098;2023-06-10T10:11:08;3.45;;;2.83;;
8610;SDS011;4343;53.648;10.098;2023-06-10T10:13:34;7.15;;;3.75;;
8610;SDS011;4343;53.648;10.098;2023-06-10T10:16:04;5.65;;;3.22;;
8610;SDS011;4343;53.648;10.098;2023-06-10T10:18:36;4.45;;;3.38;;
8610;SDS011;4343;53.648;10.098;2023-06-10T10:21:11;5.75;;;3.00;;
8610;SDS011;4343;53.648;10.098;2023-06-10T10:24:01;4.63;;;2.88;;
8610;SDS011;4343;53.648;10.098;2023-06-10T10:26:27;3.75;;;3.17;;
8610;SDS011;4343;53.648;10.098;2023-06-10T10:29:19;6.40;;;3.33;;
8610;SDS011;4343;53.648;10.098;2023-06-10T10:31:50;3.10;;;2.80;;
8610;SDS011;4343;53.648;10.098;2023-06-10T10:34:19;6.22;;;3.50;;
8610;SDS011;4343;53.648;10.098;2023-06-10T10:36:52;5.90;;;3.10;;
8610;SDS011;4343;53.648;10.098;2023-06-10T10:39:19;5.30;;;3.53;;
8610;SDS011;4343;53.648;10.098;2023-06-10T10:41:45;4.13;;;3.03;;
8610;SDS011;4343;53.648;10.098;2023-06-10T10:44:12;5.45;;;3.47;;
8610;SDS011;4343;53.648;10.098;2023-06-10T10:46:41;9.60;;;4.20;;
8610;SDS011;4343;53.648;10.098;2023-06-10T10:49:08;5.90;;;4.13;;
8610;SDS011;4343;53.648;10.098;2023-06-10T10:51:35;5.60;;;3.33;;
8610;SDS011;4343;53.648;10.098;2023-06-10T10:54:14;3.90;;;3.28;;
8610;SDS011;4343;53.648;10.098;2023-06-10T10:57:01;4.93;;;3.20;;
8610;SDS011;4343;53.648;10.098;2023-06-10T11:02:32;3.90;;;3.60;;
8610;SDS011;4343;53.648;10.098;2023-06-10T11:05:03;4.05;;;3.67;;
8610;SDS011;4343;53.648;10.098;2023-06-10T11:07:30;4.95;;;3.28;;
8610;SDS011;4343;53.648;10.098;2023-06-10T11:09:58;3.60;;;3.00;;
8610;SDS011;4343;53.648;10.098;2023-06-10T11:12:41;6.22;;;3.42;;
8610;SDS011;4343;53.648;10.098;2023-06-10T11:15:10;3.55;;;3.22;;
8610;SDS011;4343;53.648;10.098;2023-06-10T11:20:41;3.88;;;3.38;;
8610;SDS011;4343;53.648;10.098;2023-06-10T11:26:43;3.22;;;2.92;;
8610;SDS011;4343;53.648;10.098;2023-06-10T11:33:54;5.40;;;3.83;;
8610;SDS011;4343;53.648;10.098;2023-06-10T11:36:21;3.30;;;3.10;;
8610;SDS011;4343;53.648;10.098;2023-06-10T11:38:48;5.40;;;3.63;;
8610;SDS011;4343;53.648;10.098;2023-06-10T11:41:14;4.50;;;3.20;;
8610;SDS011;4343;53.648;10.098;2023-06-10T11:43:42;5.55;;;3.65;;
8610;SDS011;4343;53.648;10.098;2023-06-10T11:46:11;3.30;;;3.10;;
8610;SDS011;4343;53.648;10.098;2023-06-10T11:48:37;6.38;;;3.90;;
8610;SDS011;4343;53.648;10.098;2023-06-10T11:51:06;3.35;;;3.10;;
8610;SDS011;4343;53.648;10.098;2023-06-10T11:53:32;4.63;;;3.78;;
8610;SDS011;4343;53.648;10.098;2023-06-10T11:55:58;6.05;;;3.67;;
8610;SDS011;4343;53.648;10.098;2023-06-10T11:58:24;8.48;;;3.97;;
8610;SDS011;4343;53.648;10.098;2023-06-10T12:00:51;5.78;;;3.40;;
8610;SDS011;4343;53.648;10.098;2023-06-10T12:03:18;4.25;;;3.42;;
8610;SDS011;4343;53.648;10.098;2023-06-10T12:06:00;5.20;;;3.63;;
8610;SDS011;4343;53.648;10.098;2023-06-10T12:08:29;5.60;;;3.58;;
8610;SDS011;4343;53.648;10.098;2023-06-10T12:10:55;3.38;;;3.08;;
8610;SDS011;4343;53.648;10.098;2023-06-10T12:13:21;5.45;;;3.28;;
8610;SDS011;4343;53.648;10.098;2023-06-10T12:15:48;3.03;;;2.92;;
8610;SDS011;4343;53.648;10.098;2023-06-10T12:18:21;5.82;;;3.63;;
8610;SDS011;4343;53.648;10.098;2023-06-10T12:20:48;5.15;;;3.28;;
8610;SDS011;4343;53.648;10.098;2023-06-10T12:23:16;3.60;;;3.08;;
8610;SDS011;4343;53.648;10.098;2023-06-10T12:25:52;3.75;;;3.42;;
8610;SDS011;4343;53.648;10.098;2023-06-10T12:28:22;3.85;;;3.22;;
8610;SDS011;4343;53.648;10.098;2023-06-10T12:30:49;7.20;;;3.78;;
8610;SDS011;4343;53.648;10.098;2023-06-10T12:33:17;5.30;;;3.22;;
8610;SDS011;4343;53.648;10.098;2023-06-10T12:35:50;5.47;;;3.67;;
8610;SDS011;4343;53.648;10.098;2023-06-10T12:38:23;3.65;;;3.20;;
8610;SDS011;4343;53.648;10.098;2023-06-10T12:40:51;5.50;;;3.50;;
8610;SDS011;4343;53.648;10.098;2023-06-10T12:43:21;6.30;;;3.72;;
8610;SDS011;4343;53.648;10.098;2023-06-10T12:45:48;6.82;;;3.80;;
8610;SDS011;4343;53.648;10.098;2023-06-10T12:48:21;6.53;;;3.55;;
8610;SDS011;4343;53.648;10.098;2023-06-10T12:50:54;4.20;;;3.58;;
8610;SDS011;4343;53.648;10.098;2023-06-10T12:53:20;12.57;;;3.85;;
8610;SDS011;4343;53.648;10.098;2023-06-10T12:55:48;8.73;;;3.65;;
8610;SDS011;4343;53.648;10.098;2023-06-10T12:58:13;5.00;;;3.60;;
8610;SDS011;4343;53.648;10.098;2023-06-10T13:00:39;4.07;;;3.63;;
8610;SDS011;4343;53.648;10.098;2023-06-10T13:03:07;4.25;;;3.40;;
8610;SDS011;4343;53.648;10.098;2023-06-10T13:05:37;4.85;;;3.38;;
8610;SDS011;4343;53.648;10.098;2023-06-10T13:08:03;5.00;;;3.78;;
8610;SDS011;4343;53.648;10.098;2023-06-10T13:10:30;3.92;;;3.50;;
8610;SDS011;4343;53.648;10.098;2023-06-10T13:12:56;5.25;;;3.50;;
8610;SDS011;4343;53.648;10.098;2023-06-10T13:15:21;4.03;;;3.60;;
8610;SDS011;4343;53.648;10.098;2023-06-10T13:17:47;4.88;;;3.58;;
8610;SDS011;4343;53.648;10.098;2023-06-10T13:20:14;5.93;;;3.42;;
8610;SDS011;4343;53.648;10.098;2023-06-10T13:22:41;6.70;;;3.85;;
8610;SDS011;4343;53.648;10.098;2023-06-10T13:25:07;7.13;;;3.30;;
8610;SDS011;4343;53.648;10.098;2023-06-10T13:27:33;5.43;;;3.30;;
8610;SDS011;4343;53.648;10.098;2023-06-10T13:30:00;4.68;;;3.47;;
8610;SDS011;4343;53.648;10.098;2023-06-10T13:32:26;5.13;;;3.47;;
8610;SDS011;4343;53.648;10.098;2023-06-10T13:34:51;9.13;;;3.80;;
8610;SDS011;4343;53.648;10.098;2023-06-10T13:37:18;4.65;;;3.15;;
8610;SDS011;4343;53.648;10.098;2023-06-10T13:39:44;4.10;;;3.30;;
8610;SDS011;4343;53.648;10.098;2023-06-10T13:42:13;6.03;;;3.50;;
8610;SDS011;4343;53.648;10.098;2023-06-10T13:44:39;3.67;;;3.38;;
8610;SDS011;4343;53.648;10.098;2023-06-10T13:47:04;4.80;;;4.05;;
8610;SDS011;4343;53.648;10.098;2023-06-10T13:49:30;6.38;;;3.33;;
8610;SDS011;4343;53.648;10.098;2023-06-10T13:51:56;4.45;;;3.25;;
8610;SDS011;4343;53.648;10.098;2023-06-10T13:54:21;5.05;;;3.45;;
8610;SDS011;4343;53.648;10.098;2023-06-10T13:56:47;9.07;;;3.33;;
8610;SDS011;4343;53.648;10.098;2023-06-10T13:59:13;5.82;;;3.17;;
8610;SDS011;4343;53.648;10.098;2023-06-10T14:01:38;4.70;;;2.90;;
8610;SDS011;4343;53.648;10.098;2023-06-10T14:04:05;5.22;;;3.47;;
8610;SDS011;4343;53.648;10.098;2023-06-10T14:06:31;5.18;;;2.95;;
8610;SDS011;4343;53.648;10.098;2023-06-10T14:08:58;5.00;;;3.78;;
8610;SDS011;4343;53.648;10.098;2023-06-10T14:11:27;6.43;;;2.72;;
8610;SDS011;4343;53.648;10.098;2023-06-10T14:13:52;5.10;;;3.78;;
8610;SDS011;4343;53.648;10.098;2023-06-10T14:16:21;5.80;;;3.45;;
8610;SDS011;4343;53.648;10.098;2023-06-10T14:18:46;7.90;;;3.35;;
8610;SDS011;4343;53.648;10.098;2023-06-10T14:21:12;6.63;;;3.58;;
8610;SDS011;4343;53.648;10.098;2023-06-10T14:23:37;4.60;;;3.67;;
8610;SDS011;4343;53.648;10.098;2023-06-10T14:26:03;6.95;;;3.55;;
8610;SDS011;4343;53.648;10.098;2023-06-10T14:28:30;9.18;;;3.20;;
8610;SDS011;4343;53.648;10.098;2023-06-10T14:30:56;8.25;;;3.42;;
8610;SDS011;4343;53.648;10.098;2023-06-10T14:33:22;6.80;;;3.60;;
8610;SDS011;4343;53.648;10.098;2023-06-10T14:35:48;6.50;;;3.50;;
8610;SDS011;4343;53.648;10.098;2023-06-10T14:38:13;4.50;;;3.13;;
8610;SDS011;4343;53.648;10.098;2023-06-10T14:40:39;7.90;;;4.15;;
8610;SDS011;4343;53.648;10.098;2023-06-10T14:43:04;3.90;;;3.50;;
8610;SDS011;4343;53.648;10.098;2023-06-10T14:45:35;5.07;;;3.53;;
8610;SDS011;4343;53.648;10.098;2023-06-10T14:48:01;5.88;;;3.08;;
8610;SDS011;4343;53.648;10.098;2023-06-10T14:50:27;4.90;;;3.05;;
8610;SDS011;4343;53.648;10.098;2023-06-10T14:52:52;7.72;;;3.55;;
8610;SDS011;4343;53.648;10.098;2023-06-10T14:55:18;5.88;;;3.63;;
8610;SDS011;4343;53.648;10.098;2023-06-10T14:57:43;6.38;;;3.28;;
8610;SDS011;4343;53.648;10.098;2023-06-10T15:00:09;5.28;;;4.18;;
8610;SDS011;4343;53.648;10.098;2023-06-10T15:02:35;6.88;;;3.55;;
8610;SDS011;4343;53.648;10.098;2023-06-10T15:05:00;4.90;;;3.25;;
8610;SDS011;4343;53.648;10.098;2023-06-10T15:07:26;4.10;;;3.17;;
8610;SDS011;4343;53.648;10.098;2023-06-10T15:09:52;6.90;;;3.88;;
8610;SDS011;4343;53.648;10.098;2023-06-10T15:12:17;5.65;;;3.70;;
8610;SDS011;4343;53.648;10.098;2023-06-10T15:14:43;8.63;;;4.13;;